メインページ
METAR-TAF:

METAR-TAF

空港 :

デンバー, コロラド州, アメリカ合衆国

デンバー国際空港

緯度: 39-49-58N, 経度: 104-39-27W, 海抜: 1655m

現時点の気象観測

当レポートは1時間3分前の10:53(UTC)に作成
の風 10kt
気温 5°C
湿度 65%
気圧 1016 hPa
視程: 16.1km
高度22000ftの雲は散在している

METAR: KDEN 231053Z 19010KT 10SM SCT220 05/M01 A3000 RMK AO2 SLP129 T00501011 $

時間: 05:56 (11:56 UTC)

予報

当レポートは19分前の11:37(UTC)に作成
予報は23日の 12時(UTC)から 24日の 18時(UTC)まで有効
西/南西の風 10kt
視程: 10km
高度22000ftの千切れ雲あり
23日の 1700時(UTC)から
南/南東の風 6kt
視程: 10km
高度15000ftの雲はほとんどない
高度22000ftの千切れ雲あり
23日の 2300時(UTC)から
西の風 11kt
視程: 10km
高度12000ftの雲は散在している
高度20000ftの千切れ雲あり
24日の 0100時(UTC)から
南/南東の風 7kt
視程: 10km
高度11000ftの千切れ雲あり
高度20000ftの千切れ雲あり
24日の 0400時(UTC)から
南/南西の風 11kt
視程: 10km
高度25000ftの千切れ雲あり
24日の 0900時(UTC)から
の風 12kt
視程: 10km
高度14000ftの雲はほとんどない
高度22000ftの千切れ雲あり
24日の 1300時(UTC)から
変向風 5kt
視程: 10km
高度12000ftの雲はほとんどない
高度22000ftの雲は散在している

TAF: KDEN 231137Z 2312/2418 24010KT P6SM BKN220 FM231700 15006KT P6SM FEW150 BKN220 FM232300 28011KT P6SM SCT120 BKN200 FM240100 15007KT P6SM BKN110 BKN200 FM240400 21011KT P6SM BKN250 FM240900 35012KT P6SM FEW140 BKN220 FM241300 VRB05KT P6SM FEW120 SCT220

4,000以上の空港の気象観測と天気予報(METAR報とTAF報)

利用可能な観測所は地図上に黄色い丸と赤い丸で示す。

丸の上にカーソルを重ねると観測所名を参照できる。

次にクリックすると気象観測と天気予報を参照できる。

マップの切り替え:黒色「×」印の緑ボタンをクリックして拡大、「-」印の緑ボタンをクリックして縮小、緑色の三角印をクリックして隣りの地図に切り替え


METAR-TAF: